sensor_id;sensor_type;location;lat;lon;timestamp;P1;durP1;ratioP1;P2;durP2;ratioP2
44452;SDS011;30155;52.164;21.236;2024-02-26T00:02:23;15.10;;;9.40;;
44452;SDS011;30155;52.164;21.236;2024-02-26T00:07:14;12.60;;;9.40;;
44452;SDS011;30155;52.164;21.236;2024-02-26T00:12:06;15.10;;;9.00;;
44452;SDS011;30155;52.164;21.236;2024-02-26T00:16:58;13.10;;;8.50;;
44452;SDS011;30155;52.164;21.236;2024-02-26T00:21:50;13.50;;;9.60;;
44452;SDS011;30155;52.164;21.236;2024-02-26T00:26:44;13.90;;;9.30;;
44452;SDS011;30155;52.164;21.236;2024-02-26T00:31:36;14.20;;;9.90;;
44452;SDS011;30155;52.164;21.236;2024-02-26T00:36:28;12.90;;;9.70;;
44452;SDS011;30155;52.164;21.236;2024-02-26T00:41:20;12.20;;;9.30;;
44452;SDS011;30155;52.164;21.236;2024-02-26T00:46:11;13.20;;;9.50;;
44452;SDS011;30155;52.164;21.236;2024-02-26T00:51:03;11.10;;;8.10;;
44452;SDS011;30155;52.164;21.236;2024-02-26T00:55:56;13.90;;;10.20;;
44452;SDS011;30155;52.164;21.236;2024-02-26T01:00:47;12.00;;;8.80;;
44452;SDS011;30155;52.164;21.236;2024-02-26T01:05:39;11.30;;;8.60;;
44452;SDS011;30155;52.164;21.236;2024-02-26T01:10:30;14.50;;;9.70;;
44452;SDS011;30155;52.164;21.236;2024-02-26T01:15:22;10.80;;;7.50;;
44452;SDS011;30155;52.164;21.236;2024-02-26T01:20:14;11.40;;;7.90;;
44452;SDS011;30155;52.164;21.236;2024-02-26T01:25:06;15.20;;;9.80;;
44452;SDS011;30155;52.164;21.236;2024-02-26T01:29:58;15.40;;;9.00;;
44452;SDS011;30155;52.164;21.236;2024-02-26T01:34:50;11.20;;;9.00;;
44452;SDS011;30155;52.164;21.236;2024-02-26T01:39:41;13.30;;;8.60;;
44452;SDS011;30155;52.164;21.236;2024-02-26T01:44:33;13.70;;;9.80;;
44452;SDS011;30155;52.164;21.236;2024-02-26T01:49:24;14.10;;;9.70;;
44452;SDS011;30155;52.164;21.236;2024-02-26T01:54:16;14.60;;;9.20;;
44452;SDS011;30155;52.164;21.236;2024-02-26T01:59:08;12.80;;;9.40;;
44452;SDS011;30155;52.164;21.236;2024-02-26T02:04:00;14.70;;;9.90;;
44452;SDS011;30155;52.164;21.236;2024-02-26T02:08:52;12.60;;;8.90;;
44452;SDS011;30155;52.164;21.236;2024-02-26T02:13:44;11.30;;;8.50;;
44452;SDS011;30155;52.164;21.236;2024-02-26T02:18:36;14.20;;;9.00;;
44452;SDS011;30155;52.164;21.236;2024-02-26T02:23:27;12.80;;;9.20;;
44452;SDS011;30155;52.164;21.236;2024-02-26T02:28:19;12.70;;;9.60;;
44452;SDS011;30155;52.164;21.236;2024-02-26T02:33:10;12.80;;;9.90;;
44452;SDS011;30155;52.164;21.236;2024-02-26T02:38:03;14.90;;;10.20;;
44452;SDS011;30155;52.164;21.236;2024-02-26T02:42:55;12.50;;;9.00;;
44452;SDS011;30155;52.164;21.236;2024-02-26T02:47:46;12.10;;;8.90;;
44452;SDS011;30155;52.164;21.236;2024-02-26T02:52:38;13.30;;;9.00;;
44452;SDS011;30155;52.164;21.236;2024-02-26T02:57:30;14.40;;;9.10;;
44452;SDS011;30155;52.164;21.236;2024-02-26T03:02:22;14.20;;;11.00;;
44452;SDS011;30155;52.164;21.236;2024-02-26T03:07:15;13.70;;;9.20;;
44452;SDS011;30155;52.164;21.236;2024-02-26T03:12:07;15.80;;;9.70;;
44452;SDS011;30155;52.164;21.236;2024-02-26T03:16:58;14.90;;;9.30;;
44452;SDS011;30155;52.164;21.236;2024-02-26T03:21:50;15.60;;;9.80;;
44452;SDS011;30155;52.164;21.236;2024-02-26T03:26:42;13.10;;;9.60;;
44452;SDS011;30155;52.164;21.236;2024-02-26T03:31:33;15.00;;;10.30;;
44452;SDS011;30155;52.164;21.236;2024-02-26T03:36:25;15.40;;;9.90;;
44452;SDS011;30155;52.164;21.236;2024-02-26T03:41:16;14.40;;;10.50;;
44452;SDS011;30155;52.164;21.236;2024-02-26T03:46:08;13.60;;;10.10;;
44452;SDS011;30155;52.164;21.236;2024-02-26T03:51:01;13.50;;;9.30;;
44452;SDS011;30155;52.164;21.236;2024-02-26T03:55:53;14.70;;;11.10;;
44452;SDS011;30155;52.164;21.236;2024-02-26T04:00:46;19.10;;;12.00;;
44452;SDS011;30155;52.164;21.236;2024-02-26T04:05:38;13.70;;;10.00;;
44452;SDS011;30155;52.164;21.236;2024-02-26T04:10:29;16.90;;;11.20;;
44452;SDS011;30155;52.164;21.236;2024-02-26T04:15:21;14.10;;;10.20;;
44452;SDS011;30155;52.164;21.236;2024-02-26T04:20:13;16.70;;;10.80;;
44452;SDS011;30155;52.164;21.236;2024-02-26T04:25:07;13.40;;;10.50;;
44452;SDS011;30155;52.164;21.236;2024-02-26T04:29:59;15.70;;;10.60;;
44452;SDS011;30155;52.164;21.236;2024-02-26T04:34:51;18.50;;;10.40;;
44452;SDS011;30155;52.164;21.236;2024-02-26T04:39:42;17.90;;;11.00;;
44452;SDS011;30155;52.164;21.236;2024-02-26T04:44:34;20.20;;;12.10;;
44452;SDS011;30155;52.164;21.236;2024-02-26T04:49:25;16.20;;;10.60;;
44452;SDS011;30155;52.164;21.236;2024-02-26T04:54:17;17.00;;;10.70;;
44452;SDS011;30155;52.164;21.236;2024-02-26T04:59:08;15.00;;;11.50;;
44452;SDS011;30155;52.164;21.236;2024-02-26T05:04:00;17.50;;;11.90;;
44452;SDS011;30155;52.164;21.236;2024-02-26T05:08:52;15.50;;;10.00;;
44452;SDS011;30155;52.164;21.236;2024-02-26T05:13:43;18.80;;;12.40;;
44452;SDS011;30155;52.164;21.236;2024-02-26T05:18:36;13.70;;;10.70;;
44452;SDS011;30155;52.164;21.236;2024-02-26T05:23:28;17.60;;;11.10;;
44452;SDS011;30155;52.164;21.236;2024-02-26T05:28:19;16.90;;;11.30;;
44452;SDS011;30155;52.164;21.236;2024-02-26T05:33:11;21.30;;;11.90;;
44452;SDS011;30155;52.164;21.236;2024-02-26T05:38:08;15.20;;;10.40;;
44452;SDS011;30155;52.164;21.236;2024-02-26T05:43:00;13.90;;;10.30;;
44452;SDS011;30155;52.164;21.236;2024-02-26T05:47:51;15.30;;;10.10;;
44452;SDS011;30155;52.164;21.236;2024-02-26T05:52:43;16.20;;;9.80;;
44452;SDS011;30155;52.164;21.236;2024-02-26T05:57:34;21.90;;;12.30;;
44452;SDS011;30155;52.164;21.236;2024-02-26T06:02:26;15.70;;;11.50;;
44452;SDS011;30155;52.164;21.236;2024-02-26T06:07:17;16.80;;;11.10;;
44452;SDS011;30155;52.164;21.236;2024-02-26T06:12:09;16.80;;;12.40;;
44452;SDS011;30155;52.164;21.236;2024-02-26T06:17:01;17.00;;;10.90;;
44452;SDS011;30155;52.164;21.236;2024-02-26T06:21:52;15.90;;;12.00;;
44452;SDS011;30155;52.164;21.236;2024-02-26T06:26:43;18.90;;;12.30;;
44452;SDS011;30155;52.164;21.236;2024-02-26T06:31:35;19.40;;;14.20;;
44452;SDS011;30155;52.164;21.236;2024-02-26T06:36:26;15.80;;;12.10;;
44452;SDS011;30155;52.164;21.236;2024-02-26T06:41:18;21.10;;;12.70;;
44452;SDS011;30155;52.164;21.236;2024-02-26T06:46:09;22.50;;;12.80;;
44452;SDS011;30155;52.164;21.236;2024-02-26T06:51:01;17.50;;;11.80;;
44452;SDS011;30155;52.164;21.236;2024-02-26T06:55:53;20.60;;;13.90;;
44452;SDS011;30155;52.164;21.236;2024-02-26T07:00:44;29.10;;;13.90;;
44452;SDS011;30155;52.164;21.236;2024-02-26T07:05:36;21.00;;;15.00;;
44452;SDS011;30155;52.164;21.236;2024-02-26T07:10:28;19.70;;;14.40;;
44452;SDS011;30155;52.164;21.236;2024-02-26T07:15:19;19.40;;;12.50;;
44452;SDS011;30155;52.164;21.236;2024-02-26T07:20:12;19.10;;;13.60;;
44452;SDS011;30155;52.164;21.236;2024-02-26T07:25:03;18.90;;;14.60;;
44452;SDS011;30155;52.164;21.236;2024-02-26T07:29:57;18.20;;;12.50;;
44452;SDS011;30155;52.164;21.236;2024-02-26T07:34:49;16.20;;;10.50;;
44452;SDS011;30155;52.164;21.236;2024-02-26T07:39:40;17.30;;;12.50;;
44452;SDS011;30155;52.164;21.236;2024-02-26T07:44:32;15.60;;;12.70;;
44452;SDS011;30155;52.164;21.236;2024-02-26T07:49:24;15.20;;;13.20;;
44452;SDS011;30155;52.164;21.236;2024-02-26T07:54:16;18.00;;;12.20;;
44452;SDS011;30155;52.164;21.236;2024-02-26T07:59:08;19.00;;;15.20;;
44452;SDS011;30155;52.164;21.236;2024-02-26T08:04:00;16.80;;;12.90;;
44452;SDS011;30155;52.164;21.236;2024-02-26T08:08:52;21.80;;;17.30;;
44452;SDS011;30155;52.164;21.236;2024-02-26T08:13:43;18.00;;;15.00;;
44452;SDS011;30155;52.164;21.236;2024-02-26T08:18:35;17.70;;;15.80;;
44452;SDS011;30155;52.164;21.236;2024-02-26T08:23:27;19.80;;;16.00;;
44452;SDS011;30155;52.164;21.236;2024-02-26T08:28:18;16.10;;;14.30;;
44452;SDS011;30155;52.164;21.236;2024-02-26T08:33:10;15.20;;;13.50;;
44452;SDS011;30155;52.164;21.236;2024-02-26T08:38:02;14.00;;;12.60;;
44452;SDS011;30155;52.164;21.236;2024-02-26T08:42:54;13.80;;;12.40;;
44452;SDS011;30155;52.164;21.236;2024-02-26T08:47:46;14.50;;;13.00;;
44452;SDS011;30155;52.164;21.236;2024-02-26T08:52:38;14.90;;;13.40;;
44452;SDS011;30155;52.164;21.236;2024-02-26T08:57:29;17.10;;;14.40;;
44452;SDS011;30155;52.164;21.236;2024-02-26T09:02:24;16.30;;;14.70;;
44452;SDS011;30155;52.164;21.236;2024-02-26T09:07:15;15.00;;;13.30;;
44452;SDS011;30155;52.164;21.236;2024-02-26T09:12:07;16.40;;;14.40;;
44452;SDS011;30155;52.164;21.236;2024-02-26T09:16:58;15.10;;;13.50;;
44452;SDS011;30155;52.164;21.236;2024-02-26T09:21:50;16.40;;;14.60;;
44452;SDS011;30155;52.164;21.236;2024-02-26T09:26:54;17.60;;;14.90;;
44452;SDS011;30155;52.164;21.236;2024-02-26T09:31:46;15.00;;;13.50;;
44452;SDS011;30155;52.164;21.236;2024-02-26T09:36:38;14.50;;;13.00;;
44452;SDS011;30155;52.164;21.236;2024-02-26T09:41:30;15.60;;;13.90;;
44452;SDS011;30155;52.164;21.236;2024-02-26T09:46:23;13.60;;;12.20;;
44452;SDS011;30155;52.164;21.236;2024-02-26T09:51:16;14.30;;;12.60;;
44452;SDS011;30155;52.164;21.236;2024-02-26T09:56:09;14.50;;;13.00;;
44452;SDS011;30155;52.164;21.236;2024-02-26T10:01:03;15.70;;;14.00;;
44452;SDS011;30155;52.164;21.236;2024-02-26T10:06:00;14.80;;;13.20;;
44452;SDS011;30155;52.164;21.236;2024-02-26T10:10:54;12.70;;;11.40;;
44452;SDS011;30155;52.164;21.236;2024-02-26T10:15:47;12.90;;;11.70;;
44452;SDS011;30155;52.164;21.236;2024-02-26T10:20:38;13.00;;;11.70;;
44452;SDS011;30155;52.164;21.236;2024-02-26T10:25:55;13.00;;;11.70;;
44452;SDS011;30155;52.164;21.236;2024-02-26T10:30:47;11.30;;;9.50;;
44452;SDS011;30155;52.164;21.236;2024-02-26T10:35:39;9.80;;;8.80;;
44452;SDS011;30155;52.164;21.236;2024-02-26T10:40:37;11.90;;;8.90;;
44452;SDS011;30155;52.164;21.236;2024-02-26T10:45:28;9.80;;;8.70;;
44452;SDS011;30155;52.164;21.236;2024-02-26T10:50:20;8.80;;;8.00;;
44452;SDS011;30155;52.164;21.236;2024-02-26T10:55:17;8.90;;;8.10;;
44452;SDS011;30155;52.164;21.236;2024-02-26T11:00:15;8.50;;;7.70;;
44452;SDS011;30155;52.164;21.236;2024-02-26T11:05:07;8.20;;;7.50;;
44452;SDS011;30155;52.164;21.236;2024-02-26T11:10:00;7.10;;;6.50;;
44452;SDS011;30155;52.164;21.236;2024-02-26T11:14:51;7.60;;;6.90;;
44452;SDS011;30155;52.164;21.236;2024-02-26T11:19:45;5.90;;;4.80;;
44452;SDS011;30155;52.164;21.236;2024-02-26T11:24:37;5.80;;;4.90;;
44452;SDS011;30155;52.164;21.236;2024-02-26T11:29:50;4.00;;;3.30;;
44452;SDS011;30155;52.164;21.236;2024-02-26T11:34:44;3.80;;;3.40;;
44452;SDS011;30155;52.164;21.236;2024-02-26T11:39:36;4.50;;;4.10;;
44452;SDS011;30155;52.164;21.236;2024-02-26T11:44:30;4.10;;;3.80;;
44452;SDS011;30155;52.164;21.236;2024-02-26T11:59:39;2.70;;;2.40;;
44452;SDS011;30155;52.164;21.236;2024-02-26T12:04:32;2.70;;;2.20;;
44452;SDS011;30155;52.164;21.236;2024-02-26T12:09:30;2.90;;;2.50;;
44452;SDS011;30155;52.164;21.236;2024-02-26T12:14:25;2.60;;;2.40;;
44452;SDS011;30155;52.164;21.236;2024-02-26T12:19:17;2.20;;;2.10;;
44452;SDS011;30155;52.164;21.236;2024-02-26T12:24:18;2.80;;;2.60;;
44452;SDS011;30155;52.164;21.236;2024-02-26T12:29:12;2.60;;;2.40;;
44452;SDS011;30155;52.164;21.236;2024-02-26T12:34:04;3.20;;;2.70;;
44452;SDS011;30155;52.164;21.236;2024-02-26T12:38:56;2.70;;;2.50;;
44452;SDS011;30155;52.164;21.236;2024-02-26T12:43:48;6.30;;;2.80;;
44452;SDS011;30155;52.164;21.236;2024-02-26T12:48:44;3.40;;;2.50;;
44452;SDS011;30155;52.164;21.236;2024-02-26T12:53:38;2.30;;;2.10;;
44452;SDS011;30155;52.164;21.236;2024-02-26T12:58:29;2.90;;;2.60;;
44452;SDS011;30155;52.164;21.236;2024-02-26T13:03:23;2.90;;;2.40;;
44452;SDS011;30155;52.164;21.236;2024-02-26T13:08:18;3.10;;;2.80;;
44452;SDS011;30155;52.164;21.236;2024-02-26T13:13:10;8.80;;;3.10;;
44452;SDS011;30155;52.164;21.236;2024-02-26T13:18:12;4.80;;;2.50;;
44452;SDS011;30155;52.164;21.236;2024-02-26T13:23:05;3.50;;;2.30;;
44452;SDS011;30155;52.164;21.236;2024-02-26T13:28:17;3.00;;;2.60;;
44452;SDS011;30155;52.164;21.236;2024-02-26T13:33:11;2.80;;;2.50;;
44452;SDS011;30155;52.164;21.236;2024-02-26T13:38:04;3.70;;;2.50;;
44452;SDS011;30155;52.164;21.236;2024-02-26T13:42:56;8.00;;;4.30;;
44452;SDS011;30155;52.164;21.236;2024-02-26T13:47:47;5.20;;;3.00;;
44452;SDS011;30155;52.164;21.236;2024-02-26T13:52:39;8.10;;;3.30;;
44452;SDS011;30155;52.164;21.236;2024-02-26T13:57:31;3.60;;;3.00;;
44452;SDS011;30155;52.164;21.236;2024-02-26T14:02:22;5.80;;;2.90;;
44452;SDS011;30155;52.164;21.236;2024-02-26T14:07:14;12.30;;;3.90;;
44452;SDS011;30155;52.164;21.236;2024-02-26T14:12:08;4.30;;;3.00;;
44452;SDS011;30155;52.164;21.236;2024-02-26T14:16:59;2.90;;;2.60;;
44452;SDS011;30155;52.164;21.236;2024-02-26T14:21:52;3.20;;;2.90;;
44452;SDS011;30155;52.164;21.236;2024-02-26T14:26:43;7.00;;;3.40;;
44452;SDS011;30155;52.164;21.236;2024-02-26T14:31:34;7.30;;;3.30;;
44452;SDS011;30155;52.164;21.236;2024-02-26T14:36:26;3.30;;;2.80;;
44452;SDS011;30155;52.164;21.236;2024-02-26T14:41:17;6.60;;;3.10;;
44452;SDS011;30155;52.164;21.236;2024-02-26T14:46:09;2.80;;;2.50;;
44452;SDS011;30155;52.164;21.236;2024-02-26T14:51:00;15.20;;;4.30;;
44452;SDS011;30155;52.164;21.236;2024-02-26T14:55:52;6.70;;;2.70;;
44452;SDS011;30155;52.164;21.236;2024-02-26T15:00:43;10.60;;;3.80;;
44452;SDS011;30155;52.164;21.236;2024-02-26T15:05:35;9.30;;;3.10;;
44452;SDS011;30155;52.164;21.236;2024-02-26T15:10:27;7.30;;;3.80;;
44452;SDS011;30155;52.164;21.236;2024-02-26T15:15:19;4.50;;;3.30;;
44452;SDS011;30155;52.164;21.236;2024-02-26T15:20:11;7.10;;;3.60;;
44452;SDS011;30155;52.164;21.236;2024-02-26T15:25:03;4.40;;;3.50;;
44452;SDS011;30155;52.164;21.236;2024-02-26T15:29:55;4.20;;;3.80;;
44452;SDS011;30155;52.164;21.236;2024-02-26T15:34:49;7.20;;;3.90;;
44452;SDS011;30155;52.164;21.236;2024-02-26T15:39:40;19.20;;;5.80;;
44452;SDS011;30155;52.164;21.236;2024-02-26T15:44:32;7.80;;;4.40;;
44452;SDS011;30155;52.164;21.236;2024-02-26T15:49:24;8.00;;;5.40;;
44452;SDS011;30155;52.164;21.236;2024-02-26T15:54:16;12.60;;;6.50;;
44452;SDS011;30155;52.164;21.236;2024-02-26T15:59:10;10.60;;;5.30;;
44452;SDS011;30155;52.164;21.236;2024-02-26T16:04:01;10.40;;;6.10;;
44452;SDS011;30155;52.164;21.236;2024-02-26T16:08:53;9.90;;;5.60;;
44452;SDS011;30155;52.164;21.236;2024-02-26T16:13:44;9.20;;;5.70;;
44452;SDS011;30155;52.164;21.236;2024-02-26T16:18:36;5.20;;;4.60;;
44452;SDS011;30155;52.164;21.236;2024-02-26T16:23:27;6.10;;;5.10;;
44452;SDS011;30155;52.164;21.236;2024-02-26T16:28:19;7.20;;;5.30;;
44452;SDS011;30155;52.164;21.236;2024-02-26T16:33:12;5.30;;;4.80;;
44452;SDS011;30155;52.164;21.236;2024-02-26T16:38:03;8.00;;;5.60;;
44452;SDS011;30155;52.164;21.236;2024-02-26T16:42:55;17.10;;;6.70;;
44452;SDS011;30155;52.164;21.236;2024-02-26T16:47:46;10.00;;;6.60;;
44452;SDS011;30155;52.164;21.236;2024-02-26T16:52:38;13.50;;;8.20;;
44452;SDS011;30155;52.164;21.236;2024-02-26T16:57:29;12.20;;;9.00;;
44452;SDS011;30155;52.164;21.236;2024-02-26T17:02:21;11.50;;;10.10;;
44452;SDS011;30155;52.164;21.236;2024-02-26T17:07:13;16.20;;;12.40;;
44452;SDS011;30155;52.164;21.236;2024-02-26T17:12:06;17.60;;;14.20;;
44452;SDS011;30155;52.164;21.236;2024-02-26T17:17:00;17.80;;;13.50;;
44452;SDS011;30155;52.164;21.236;2024-02-26T17:21:55;21.50;;;15.10;;
44452;SDS011;30155;52.164;21.236;2024-02-26T17:26:46;22.40;;;19.70;;
44452;SDS011;30155;52.164;21.236;2024-02-26T17:31:38;27.50;;;20.80;;
44452;SDS011;30155;52.164;21.236;2024-02-26T17:36:33;25.60;;;18.90;;
44452;SDS011;30155;52.164;21.236;2024-02-26T17:41:25;29.80;;;23.80;;
44452;SDS011;30155;52.164;21.236;2024-02-26T17:46:16;26.80;;;20.50;;
44452;SDS011;30155;52.164;21.236;2024-02-26T17:51:09;35.00;;;25.20;;
44452;SDS011;30155;52.164;21.236;2024-02-26T17:56:02;32.60;;;27.20;;
44452;SDS011;30155;52.164;21.236;2024-02-26T18:00:57;36.40;;;29.00;;
44452;SDS011;30155;52.164;21.236;2024-02-26T18:05:48;31.60;;;25.50;;
44452;SDS011;30155;52.164;21.236;2024-02-26T18:10:40;33.10;;;26.90;;
44452;SDS011;30155;52.164;21.236;2024-02-26T18:15:32;33.40;;;26.70;;
44452;SDS011;30155;52.164;21.236;2024-02-26T18:20:24;35.70;;;28.50;;
44452;SDS011;30155;52.164;21.236;2024-02-26T18:25:16;37.60;;;29.10;;
44452;SDS011;30155;52.164;21.236;2024-02-26T18:30:08;41.50;;;31.60;;
44452;SDS011;30155;52.164;21.236;2024-02-26T18:35:02;41.80;;;30.40;;
44452;SDS011;30155;52.164;21.236;2024-02-26T18:39:55;40.70;;;30.90;;
44452;SDS011;30155;52.164;21.236;2024-02-26T18:44:47;39.60;;;30.90;;
44452;SDS011;30155;52.164;21.236;2024-02-26T18:49:38;42.00;;;31.80;;
44452;SDS011;30155;52.164;21.236;2024-02-26T18:54:31;41.50;;;31.80;;
44452;SDS011;30155;52.164;21.236;2024-02-26T18:59:27;47.70;;;35.30;;
44452;SDS011;30155;52.164;21.236;2024-02-26T19:04:19;41.00;;;32.50;;
44452;SDS011;30155;52.164;21.236;2024-02-26T19:09:10;36.90;;;30.30;;
44452;SDS011;30155;52.164;21.236;2024-02-26T19:14:02;39.10;;;30.10;;
44452;SDS011;30155;52.164;21.236;2024-02-26T19:18:54;39.30;;;28.90;;
44452;SDS011;30155;52.164;21.236;2024-02-26T19:23:46;36.60;;;29.10;;
44452;SDS011;30155;52.164;21.236;2024-02-26T19:28:37;39.10;;;31.00;;
44452;SDS011;30155;52.164;21.236;2024-02-26T19:33:34;38.40;;;30.80;;
44452;SDS011;30155;52.164;21.236;2024-02-26T19:38:25;42.60;;;31.70;;
44452;SDS011;30155;52.164;21.236;2024-02-26T19:43:17;39.00;;;30.40;;
44452;SDS011;30155;52.164;21.236;2024-02-26T19:48:08;46.60;;;30.80;;
44452;SDS011;30155;52.164;21.236;2024-02-26T19:53:00;41.30;;;31.50;;
44452;SDS011;30155;52.164;21.236;2024-02-26T19:57:51;40.70;;;29.20;;
44452;SDS011;30155;52.164;21.236;2024-02-26T20:02:45;38.00;;;30.40;;
44452;SDS011;30155;52.164;21.236;2024-02-26T20:07:40;36.60;;;28.70;;
44452;SDS011;30155;52.164;21.236;2024-02-26T20:12:36;38.90;;;27.90;;
44452;SDS011;30155;52.164;21.236;2024-02-26T20:17:27;39.60;;;30.20;;
44452;SDS011;30155;52.164;21.236;2024-02-26T20:22:19;39.00;;;30.30;;
44452;SDS011;30155;52.164;21.236;2024-02-26T20:27:15;37.00;;;29.00;;
44452;SDS011;30155;52.164;21.236;2024-02-26T20:32:07;39.50;;;29.40;;
44452;SDS011;30155;52.164;21.236;2024-02-26T20:36:59;41.70;;;30.70;;
44452;SDS011;30155;52.164;21.236;2024-02-26T20:41:51;38.50;;;29.40;;
44452;SDS011;30155;52.164;21.236;2024-02-26T20:46:43;36.30;;;28.60;;
44452;SDS011;30155;52.164;21.236;2024-02-26T20:51:37;37.70;;;30.50;;
44452;SDS011;30155;52.164;21.236;2024-02-26T20:56:30;31.90;;;26.50;;
44452;SDS011;30155;52.164;21.236;2024-02-26T21:01:22;38.40;;;27.00;;
44452;SDS011;30155;52.164;21.236;2024-02-26T21:06:13;33.30;;;28.70;;
44452;SDS011;30155;52.164;21.236;2024-02-26T21:11:05;38.40;;;31.60;;
44452;SDS011;30155;52.164;21.236;2024-02-26T21:15:57;42.90;;;30.90;;
44452;SDS011;30155;52.164;21.236;2024-02-26T21:20:50;40.90;;;30.70;;
44452;SDS011;30155;52.164;21.236;2024-02-26T21:25:43;38.70;;;29.80;;
44452;SDS011;30155;52.164;21.236;2024-02-26T21:30:35;38.30;;;29.10;;
44452;SDS011;30155;52.164;21.236;2024-02-26T21:35:26;35.90;;;30.00;;
44452;SDS011;30155;52.164;21.236;2024-02-26T21:40:19;37.80;;;29.30;;
44452;SDS011;30155;52.164;21.236;2024-02-26T21:45:11;37.50;;;28.50;;
44452;SDS011;30155;52.164;21.236;2024-02-26T21:50:05;38.90;;;29.10;;
44452;SDS011;30155;52.164;21.236;2024-02-26T21:54:58;39.70;;;29.30;;
44452;SDS011;30155;52.164;21.236;2024-02-26T21:59:49;40.00;;;29.70;;
44452;SDS011;30155;52.164;21.236;2024-02-26T22:04:41;39.50;;;30.40;;
44452;SDS011;30155;52.164;21.236;2024-02-26T22:09:32;33.30;;;28.20;;
44452;SDS011;30155;52.164;21.236;2024-02-26T22:14:24;38.80;;;28.70;;
44452;SDS011;30155;52.164;21.236;2024-02-26T22:19:16;42.80;;;31.40;;
44452;SDS011;30155;52.164;21.236;2024-02-26T22:24:09;42.30;;;31.60;;
44452;SDS011;30155;52.164;21.236;2024-02-26T22:29:01;36.00;;;28.30;;
44452;SDS011;30155;52.164;21.236;2024-02-26T22:33:54;47.40;;;32.90;;
44452;SDS011;30155;52.164;21.236;2024-02-26T22:38:46;43.70;;;32.70;;
44452;SDS011;30155;52.164;21.236;2024-02-26T22:43:38;43.70;;;31.40;;
44452;SDS011;30155;52.164;21.236;2024-02-26T22:48:29;42.60;;;30.20;;
44452;SDS011;30155;52.164;21.236;2024-02-26T22:53:24;39.60;;;31.00;;
44452;SDS011;30155;52.164;21.236;2024-02-26T22:58:15;36.90;;;29.40;;
44452;SDS011;30155;52.164;21.236;2024-02-26T23:03:07;42.30;;;31.70;;
44452;SDS011;30155;52.164;21.236;2024-02-26T23:07:59;41.10;;;30.10;;
44452;SDS011;30155;52.164;21.236;2024-02-26T23:12:51;43.00;;;28.90;;
44452;SDS011;30155;52.164;21.236;2024-02-26T23:17:43;37.40;;;27.20;;
44452;SDS011;30155;52.164;21.236;2024-02-26T23:22:35;40.10;;;29.00;;
44452;SDS011;30155;52.164;21.236;2024-02-26T23:27:28;38.90;;;27.30;;
44452;SDS011;30155;52.164;21.236;2024-02-26T23:32:21;34.80;;;28.00;;
44452;SDS011;30155;52.164;21.236;2024-02-26T23:37:13;37.60;;;26.60;;
44452;SDS011;30155;52.164;21.236;2024-02-26T23:42:04;34.00;;;27.50;;
44452;SDS011;30155;52.164;21.236;2024-02-26T23:46:57;32.00;;;23.60;;
44452;SDS011;30155;52.164;21.236;2024-02-26T23:51:48;39.10;;;27.20;;
44452;SDS011;30155;52.164;21.236;2024-02-26T23:56:40;35.20;;;27.10;;
